Terminal Aerodrome Forecast
Issued by NWS

Home | Current Version | Previous Version | Text Only | Print | Product List | Glossary On
Versions: 1 2 3 4 5 6 7 8 9 10 11 12 13 14 15
000
FTUS43 KGRB 120500
TAFATW
TAF
KATW 120536Z 1206/1306 20006KT P6SM SCT035 BKN100
      TEMPO 1210/1214 5SM BR BKN020
     FM122200 24007KT P6SM VCSH SCT025 BKN070
      TEMPO 1223/1303 4SM TSRA OVC020CB=

USA.gov is the U.S. government's official web portal to all federal, state and local government web resources and services.